SAMM/LGS METAR and TAF weather

Enter ICAO airport designator
Station Type Date Time Source
SAMM METAR 2019/10/12 11:10 UTC NOAA

SAMM 121110Z 27020G39KT 8000 BLPO NSC 18/M14 Q1012


Station Type Date Time Source
SAMM Decoded METAR 2019/10/12 11:10 UTC NOAA

Malargue Aerodrome, Argentina (SAMM) 35-30S 069-35W 1425M
Oct 12, 2019 - 07:10 AM EDT / 2019.10.12 1110 UTC
Wind: from the W (270 degrees) at 23 MPH (20 KT) gusting to 45 MPH (39 KT):0
Visibility: 4 mile(s):0
Weather: blowing well developed dust or sand whirls
Temperature: 64 F (18 C)
Dew Point: 6 F (-14 C)
Relative Humidity: 10%
Pressure (altimeter): 29.88 in. Hg (1012 hPa)
ob: SAMM 121110Z 27020G39KT 8000 BLPO NSC 18/M14 Q1012
cycle: 11

Station Type Date Time Source
SAMM TAF UTC NOAA

Error!

Example: see airport list